sensor_id;sensor_type;location;lat;lon;timestamp;temperature;humidity
19665;DHT22;9980;51.020;7.772;2022-12-13T00:01:42;-3.80;98.60
19665;DHT22;9980;51.020;7.772;2022-12-13T00:04:10;-3.90;98.60
19665;DHT22;9980;51.020;7.772;2022-12-13T00:06:37;-3.90;98.70
19665;DHT22;9980;51.020;7.772;2022-12-13T00:09:04;-3.90;98.70
19665;DHT22;9980;51.020;7.772;2022-12-13T00:11:31;-3.90;98.70
19665;DHT22;9980;51.020;7.772;2022-12-13T00:13:58;-4.00;98.70
19665;DHT22;9980;51.020;7.772;2022-12-13T00:16:25;-3.90;98.70
19665;DHT22;9980;51.020;7.772;2022-12-13T00:18:54;-4.00;98.90
19665;DHT22;9980;51.020;7.772;2022-12-13T00:21:25;-4.00;98.60
19665;DHT22;9980;51.020;7.772;2022-12-13T00:23:53;-4.00;98.60
19665;DHT22;9980;51.020;7.772;2022-12-13T00:26:28;-4.00;98.60
19665;DHT22;9980;51.020;7.772;2022-12-13T00:29:01;-4.10;98.60
19665;DHT22;9980;51.020;7.772;2022-12-13T00:31:30;-4.10;98.50
19665;DHT22;9980;51.020;7.772;2022-12-13T00:34:17;-4.10;98.50
19665;DHT22;9980;51.020;7.772;2022-12-13T00:36:43;-4.10;98.60
19665;DHT22;9980;51.020;7.772;2022-12-13T00:39:10;-4.10;98.60
19665;DHT22;9980;51.020;7.772;2022-12-13T00:41:38;-4.20;98.50
19665;DHT22;9980;51.020;7.772;2022-12-13T00:44:05;-4.20;98.50
19665;DHT22;9980;51.020;7.772;2022-12-13T00:46:32;-4.20;98.50
19665;DHT22;9980;51.020;7.772;2022-12-13T00:49:00;-4.20;98.50
19665;DHT22;9980;51.020;7.772;2022-12-13T00:51:28;-4.30;98.50
19665;DHT22;9980;51.020;7.772;2022-12-13T00:53:57;-4.30;98.50
19665;DHT22;9980;51.020;7.772;2022-12-13T00:56:26;-4.30;98.50
19665;DHT22;9980;51.020;7.772;2022-12-13T00:58:54;-4.30;98.50
19665;DHT22;9980;51.020;7.772;2022-12-13T01:01:24;-4.30;98.50
19665;DHT22;9980;51.020;7.772;2022-12-13T01:03:57;-4.40;98.40
19665;DHT22;9980;51.020;7.772;2022-12-13T01:06:32;-4.40;98.50
19665;DHT22;9980;51.020;7.772;2022-12-13T01:09:03;-4.40;98.50
19665;DHT22;9980;51.020;7.772;2022-12-13T01:11:30;-4.40;98.50
19665;DHT22;9980;51.020;7.772;2022-12-13T01:13:56;-4.50;98.40
19665;DHT22;9980;51.020;7.772;2022-12-13T01:16:23;-4.50;98.40
19665;DHT22;9980;51.020;7.772;2022-12-13T01:18:49;-4.50;98.40
19665;DHT22;9980;51.020;7.772;2022-12-13T01:21:18;-4.50;98.40
19665;DHT22;9980;51.020;7.772;2022-12-13T01:23:48;-4.50;98.80
19665;DHT22;9980;51.020;7.772;2022-12-13T01:26:17;-4.60;98.50
19665;DHT22;9980;51.020;7.772;2022-12-13T01:28:46;-4.60;98.50
19665;DHT22;9980;51.020;7.772;2022-12-13T01:31:16;-4.60;98.50
19665;DHT22;9980;51.020;7.772;2022-12-13T01:33:45;-4.60;98.50
19665;DHT22;9980;51.020;7.772;2022-12-13T01:36:17;-4.70;98.50
19665;DHT22;9980;51.020;7.772;2022-12-13T01:38:54;-4.70;98.40
19665;DHT22;9980;51.020;7.772;2022-12-13T01:41:25;-4.70;98.50
19665;DHT22;9980;51.020;7.772;2022-12-13T01:43:59;-4.70;98.50
19665;DHT22;9980;51.020;7.772;2022-12-13T01:46:30;-4.70;98.50
19665;DHT22;9980;51.020;7.772;2022-12-13T01:48:59;-4.80;98.40
19665;DHT22;9980;51.020;7.772;2022-12-13T01:51:53;-4.80;98.40
19665;DHT22;9980;51.020;7.772;2022-12-13T01:54:28;-4.80;98.40
19665;DHT22;9980;51.020;7.772;2022-12-13T01:57:03;-4.80;98.40
19665;DHT22;9980;51.020;7.772;2022-12-13T01:59:36;-4.80;98.50
19665;DHT22;9980;51.020;7.772;2022-12-13T02:02:05;-4.90;98.40
19665;DHT22;9980;51.020;7.772;2022-12-13T02:05:37;-4.90;98.40
19665;DHT22;9980;51.020;7.772;2022-12-13T02:08:03;-4.90;98.30
19665;DHT22;9980;51.020;7.772;2022-12-13T02:10:32;-4.90;98.40
19665;DHT22;9980;51.020;7.772;2022-12-13T02:12:59;-5.00;98.40
19665;DHT22;9980;51.020;7.772;2022-12-13T02:15:30;-5.00;98.40
19665;DHT22;9980;51.020;7.772;2022-12-13T02:21:05;-5.00;98.50
19665;DHT22;9980;51.020;7.772;2022-12-13T02:26:44;-5.10;98.40
19665;DHT22;9980;51.020;7.772;2022-12-13T02:32:42;-5.10;98.40
19665;DHT22;9980;51.020;7.772;2022-12-13T02:35:45;-5.20;98.40
19665;DHT22;9980;51.020;7.772;2022-12-13T02:41:38;-5.20;98.40
19665;DHT22;9980;51.020;7.772;2022-12-13T02:44:33;-5.20;98.40
19665;DHT22;9980;51.020;7.772;2022-12-13T02:47:09;-5.20;98.40
19665;DHT22;9980;51.020;7.772;2022-12-13T02:49:50;-5.30;98.70
19665;DHT22;9980;51.020;7.772;2022-12-13T02:52:25;-5.30;98.40
19665;DHT22;9980;51.020;7.772;2022-12-13T02:54:54;-5.30;98.50
19665;DHT22;9980;51.020;7.772;2022-12-13T03:00:22;-5.30;98.50
19665;DHT22;9980;51.020;7.772;2022-12-13T03:09:30;-5.30;98.70
19665;DHT22;9980;51.020;7.772;2022-12-13T03:12:26;-5.30;98.80
19665;DHT22;9980;51.020;7.772;2022-12-13T03:15:35;-5.30;98.90
19665;DHT22;9980;51.020;7.772;2022-12-13T03:18:12;-5.30;99.00
19665;DHT22;9980;51.020;7.772;2022-12-13T03:20:46;-5.20;99.10
19665;DHT22;9980;51.020;7.772;2022-12-13T03:23:16;-5.20;99.10
19665;DHT22;9980;51.020;7.772;2022-12-13T03:25:44;-5.20;99.20
19665;DHT22;9980;51.020;7.772;2022-12-13T03:28:12;-5.20;99.20
19665;DHT22;9980;51.020;7.772;2022-12-13T03:30:38;-5.10;99.30
19665;DHT22;9980;51.020;7.772;2022-12-13T03:33:04;-5.10;99.30
19665;DHT22;9980;51.020;7.772;2022-12-13T03:35:31;-5.10;99.40
19665;DHT22;9980;51.020;7.772;2022-12-13T03:38:01;-5.10;99.60
19665;DHT22;9980;51.020;7.772;2022-12-13T03:40:28;-5.00;99.70
19665;DHT22;9980;51.020;7.772;2022-12-13T03:42:55;-5.00;99.80
19665;DHT22;9980;51.020;7.772;2022-12-13T03:45:21;-4.90;99.90
19665;DHT22;9980;51.020;7.772;2022-12-13T03:47:48;-4.80;99.90
19665;DHT22;9980;51.020;7.772;2022-12-13T03:50:14;-4.80;99.90
19665;DHT22;9980;51.020;7.772;2022-12-13T03:53:00;-4.80;99.90
19665;DHT22;9980;51.020;7.772;2022-12-13T03:55:27;-4.70;99.90
19665;DHT22;9980;51.020;7.772;2022-12-13T03:57:54;-4.70;99.90
19665;DHT22;9980;51.020;7.772;2022-12-13T04:00:20;-4.60;99.90
19665;DHT22;9980;51.020;7.772;2022-12-13T04:02:47;-4.50;99.90
19665;DHT22;9980;51.020;7.772;2022-12-13T04:05:13;-4.50;99.90
19665;DHT22;9980;51.020;7.772;2022-12-13T04:07:40;-4.40;99.90
19665;DHT22;9980;51.020;7.772;2022-12-13T04:10:14;-4.40;99.90
19665;DHT22;9980;51.020;7.772;2022-12-13T04:12:52;-4.30;99.90
19665;DHT22;9980;51.020;7.772;2022-12-13T04:15:38;-4.30;99.90
19665;DHT22;9980;51.020;7.772;2022-12-13T04:18:05;-4.20;99.90
19665;DHT22;9980;51.020;7.772;2022-12-13T04:20:32;-4.20;99.90
19665;DHT22;9980;51.020;7.772;2022-12-13T04:22:58;-4.10;99.90
19665;DHT22;9980;51.020;7.772;2022-12-13T04:25:25;-4.10;99.90
19665;DHT22;9980;51.020;7.772;2022-12-13T04:27:51;-4.10;99.90
19665;DHT22;9980;51.020;7.772;2022-12-13T04:30:18;-4.10;99.90
19665;DHT22;9980;51.020;7.772;2022-12-13T04:32:45;-4.00;99.90
19665;DHT22;9980;51.020;7.772;2022-12-13T04:35:11;-4.00;99.90
19665;DHT22;9980;51.020;7.772;2022-12-13T04:37:37;-4.00;99.90
19665;DHT22;9980;51.020;7.772;2022-12-13T04:40:04;-3.90;99.90
19665;DHT22;9980;51.020;7.772;2022-12-13T04:42:31;-3.90;99.90
19665;DHT22;9980;51.020;7.772;2022-12-13T04:44:57;-3.90;99.90
19665;DHT22;9980;51.020;7.772;2022-12-13T04:47:23;-3.90;99.90
19665;DHT22;9980;51.020;7.772;2022-12-13T04:49:50;-3.80;99.90
19665;DHT22;9980;51.020;7.772;2022-12-13T04:52:16;-3.90;99.90
19665;DHT22;9980;51.020;7.772;2022-12-13T04:54:48;-3.80;99.90
19665;DHT22;9980;51.020;7.772;2022-12-13T04:57:22;-3.80;99.90
19665;DHT22;9980;51.020;7.772;2022-12-13T04:59:48;-3.80;99.90
19665;DHT22;9980;51.020;7.772;2022-12-13T05:02:15;-3.80;99.90
19665;DHT22;9980;51.020;7.772;2022-12-13T05:04:50;-3.70;99.90
19665;DHT22;9980;51.020;7.772;2022-12-13T05:07:21;-3.70;99.90
19665;DHT22;9980;51.020;7.772;2022-12-13T05:09:48;-3.70;99.90
19665;DHT22;9980;51.020;7.772;2022-12-13T05:12:14;-3.70;99.90
19665;DHT22;9980;51.020;7.772;2022-12-13T05:14:52;-3.70;99.90
19665;DHT22;9980;51.020;7.772;2022-12-13T05:17:19;-3.70;99.90
19665;DHT22;9980;51.020;7.772;2022-12-13T05:19:46;-3.70;99.90
19665;DHT22;9980;51.020;7.772;2022-12-13T05:22:12;-3.80;99.90
19665;DHT22;9980;51.020;7.772;2022-12-13T05:24:46;-3.80;99.90
19665;DHT22;9980;51.020;7.772;2022-12-13T05:27:12;-3.80;99.90
19665;DHT22;9980;51.020;7.772;2022-12-13T05:29:53;-3.80;99.90
19665;DHT22;9980;51.020;7.772;2022-12-13T05:32:32;-3.80;99.90
19665;DHT22;9980;51.020;7.772;2022-12-13T05:35:13;-3.80;99.90
19665;DHT22;9980;51.020;7.772;2022-12-13T05:37:53;-3.80;99.90
19665;DHT22;9980;51.020;7.772;2022-12-13T05:40:26;-3.90;99.90
19665;DHT22;9980;51.020;7.772;2022-12-13T05:42:54;-3.90;99.80
19665;DHT22;9980;51.020;7.772;2022-12-13T05:45:28;-3.90;99.80
19665;DHT22;9980;51.020;7.772;2022-12-13T05:47:55;-4.00;99.70
19665;DHT22;9980;51.020;7.772;2022-12-13T05:50:22;-4.00;99.70
19665;DHT22;9980;51.020;7.772;2022-12-13T05:52:49;-4.00;99.70
19665;DHT22;9980;51.020;7.772;2022-12-13T05:55:16;-4.10;99.60
19665;DHT22;9980;51.020;7.772;2022-12-13T05:57:43;-4.10;99.50
19665;DHT22;9980;51.020;7.772;2022-12-13T06:00:17;-4.10;99.50
19665;DHT22;9980;51.020;7.772;2022-12-13T06:02:57;-4.20;99.30
19665;DHT22;9980;51.020;7.772;2022-12-13T06:05:27;-4.20;99.30
19665;DHT22;9980;51.020;7.772;2022-12-13T06:07:55;-4.30;99.20
19665;DHT22;9980;51.020;7.772;2022-12-13T06:10:24;-4.30;99.10
19665;DHT22;9980;51.020;7.772;2022-12-13T06:13:00;-4.40;99.00
19665;DHT22;9980;51.020;7.772;2022-12-13T06:15:47;-4.40;99.00
19665;DHT22;9980;51.020;7.772;2022-12-13T06:18:14;-4.50;98.90
19665;DHT22;9980;51.020;7.772;2022-12-13T06:20:40;-4.50;98.90
19665;DHT22;9980;51.020;7.772;2022-12-13T06:23:06;-4.60;98.90
19665;DHT22;9980;51.020;7.772;2022-12-13T06:25:32;-4.60;98.90
19665;DHT22;9980;51.020;7.772;2022-12-13T06:27:59;-4.60;98.90
19665;DHT22;9980;51.020;7.772;2022-12-13T06:30:30;-4.70;98.80
19665;DHT22;9980;51.020;7.772;2022-12-13T06:32:56;-4.70;98.80
19665;DHT22;9980;51.020;7.772;2022-12-13T06:35:23;-4.80;98.80
19665;DHT22;9980;51.020;7.772;2022-12-13T06:37:56;-4.80;98.80
19665;DHT22;9980;51.020;7.772;2022-12-13T06:40:28;-4.80;98.80
19665;DHT22;9980;51.020;7.772;2022-12-13T06:42:56;-4.90;98.80
19665;DHT22;9980;51.020;7.772;2022-12-13T06:45:22;-4.90;98.90
19665;DHT22;9980;51.020;7.772;2022-12-13T06:47:48;-4.90;98.90
19665;DHT22;9980;51.020;7.772;2022-12-13T06:50:16;-4.90;99.00
19665;DHT22;9980;51.020;7.772;2022-12-13T06:52:45;-4.90;99.00
19665;DHT22;9980;51.020;7.772;2022-12-13T06:55:12;-5.00;99.00
19665;DHT22;9980;51.020;7.772;2022-12-13T06:57:38;-5.00;99.10
19665;DHT22;9980;51.020;7.772;2022-12-13T07:00:08;-5.00;99.20
19665;DHT22;9980;51.020;7.772;2022-12-13T07:02:35;-5.00;99.40
19665;DHT22;9980;51.020;7.772;2022-12-13T07:05:03;-4.90;99.50
19665;DHT22;9980;51.020;7.772;2022-12-13T07:07:29;-4.90;99.60
19665;DHT22;9980;51.020;7.772;2022-12-13T07:09:56;-4.90;99.70
19665;DHT22;9980;51.020;7.772;2022-12-13T07:12:22;-4.90;99.70
19665;DHT22;9980;51.020;7.772;2022-12-13T07:14:49;-4.80;99.90
19665;DHT22;9980;51.020;7.772;2022-12-13T07:17:16;-4.80;99.90
19665;DHT22;9980;51.020;7.772;2022-12-13T07:20:02;-4.80;99.90
19665;DHT22;9980;51.020;7.772;2022-12-13T07:22:35;-4.80;99.90
19665;DHT22;9980;51.020;7.772;2022-12-13T07:25:13;-4.80;99.90
19665;DHT22;9980;51.020;7.772;2022-12-13T07:27:56;-4.70;99.90
19665;DHT22;9980;51.020;7.772;2022-12-13T07:30:30;-4.70;99.90
19665;DHT22;9980;51.020;7.772;2022-12-13T07:32:59;-4.70;99.90
19665;DHT22;9980;51.020;7.772;2022-12-13T07:35:28;-4.60;99.90
19665;DHT22;9980;51.020;7.772;2022-12-13T07:37:54;-4.60;99.90
19665;DHT22;9980;51.020;7.772;2022-12-13T07:40:21;-4.60;99.90
19665;DHT22;9980;51.020;7.772;2022-12-13T07:42:52;-4.60;99.90
19665;DHT22;9980;51.020;7.772;2022-12-13T07:45:21;-4.50;99.90
19665;DHT22;9980;51.020;7.772;2022-12-13T07:47:48;-4.50;99.90
19665;DHT22;9980;51.020;7.772;2022-12-13T07:50:14;-4.50;99.90
19665;DHT22;9980;51.020;7.772;2022-12-13T07:52:51;-4.50;99.90
19665;DHT22;9980;51.020;7.772;2022-12-13T07:55:18;-4.40;99.90
19665;DHT22;9980;51.020;7.772;2022-12-13T07:58:09;-4.40;99.90
19665;DHT22;9980;51.020;7.772;2022-12-13T08:00:39;-4.30;99.90
19665;DHT22;9980;51.020;7.772;2022-12-13T08:03:12;-4.30;99.90
19665;DHT22;9980;51.020;7.772;2022-12-13T08:06:02;-4.20;99.90
19665;DHT22;9980;51.020;7.772;2022-12-13T08:08:34;-4.20;99.90
19665;DHT22;9980;51.020;7.772;2022-12-13T08:11:09;-4.10;99.90
19665;DHT22;9980;51.020;7.772;2022-12-13T08:13:38;-4.00;99.90
19665;DHT22;9980;51.020;7.772;2022-12-13T08:16:07;-4.00;99.90
19665;DHT22;9980;51.020;7.772;2022-12-13T08:18:58;-4.00;99.90
19665;DHT22;9980;51.020;7.772;2022-12-13T08:21:37;-3.90;99.90
19665;DHT22;9980;51.020;7.772;2022-12-13T08:24:27;-3.80;99.90
19665;DHT22;9980;51.020;7.772;2022-12-13T08:26:57;-3.80;99.90
19665;DHT22;9980;51.020;7.772;2022-12-13T08:29:29;-3.70;99.90
19665;DHT22;9980;51.020;7.772;2022-12-13T08:32:07;-3.70;99.90
19665;DHT22;9980;51.020;7.772;2022-12-13T08:34:35;-3.70;99.90
19665;DHT22;9980;51.020;7.772;2022-12-13T08:37:02;-3.60;99.90
19665;DHT22;9980;51.020;7.772;2022-12-13T08:39:31;-3.60;99.90
19665;DHT22;9980;51.020;7.772;2022-12-13T08:42:12;-3.50;99.90
19665;DHT22;9980;51.020;7.772;2022-12-13T08:44:48;-3.50;99.90
19665;DHT22;9980;51.020;7.772;2022-12-13T08:47:17;-3.40;99.90
19665;DHT22;9980;51.020;7.772;2022-12-13T08:49:57;-3.30;99.90
19665;DHT22;9980;51.020;7.772;2022-12-13T08:52:30;-3.30;99.90
19665;DHT22;9980;51.020;7.772;2022-12-13T08:55:07;-3.30;99.90
19665;DHT22;9980;51.020;7.772;2022-12-13T08:57:38;-3.20;99.90
19665;DHT22;9980;51.020;7.772;2022-12-13T09:00:08;-3.10;99.90
19665;DHT22;9980;51.020;7.772;2022-12-13T09:02:36;-3.10;99.90
19665;DHT22;9980;51.020;7.772;2022-12-13T09:05:05;-3.10;99.90
19665;DHT22;9980;51.020;7.772;2022-12-13T09:07:34;-3.00;99.90
19665;DHT22;9980;51.020;7.772;2022-12-13T09:10:02;-3.00;99.90
19665;DHT22;9980;51.020;7.772;2022-12-13T09:12:48;-3.00;99.90
19665;DHT22;9980;51.020;7.772;2022-12-13T09:15:15;-2.90;99.90
19665;DHT22;9980;51.020;7.772;2022-12-13T09:17:48;-2.90;99.90
19665;DHT22;9980;51.020;7.772;2022-12-13T09:20:18;-2.90;99.90
19665;DHT22;9980;51.020;7.772;2022-12-13T09:22:55;-2.90;99.90
19665;DHT22;9980;51.020;7.772;2022-12-13T09:25:29;-2.80;99.90
19665;DHT22;9980;51.020;7.772;2022-12-13T09:28:06;-2.70;99.90
19665;DHT22;9980;51.020;7.772;2022-12-13T09:30:36;-2.50;99.90
19665;DHT22;9980;51.020;7.772;2022-12-13T09:33:03;-2.30;99.90
19665;DHT22;9980;51.020;7.772;2022-12-13T09:35:50;-2.10;99.90
19665;DHT22;9980;51.020;7.772;2022-12-13T09:38:18;-2.00;99.90
19665;DHT22;9980;51.020;7.772;2022-12-13T09:40:47;-1.90;99.90
19665;DHT22;9980;51.020;7.772;2022-12-13T09:43:28;-1.80;99.90
19665;DHT22;9980;51.020;7.772;2022-12-13T09:46:24;-1.80;99.90
19665;DHT22;9980;51.020;7.772;2022-12-13T09:49:16;-1.80;99.90
19665;DHT22;9980;51.020;7.772;2022-12-13T09:51:57;-1.70;99.90
19665;DHT22;9980;51.020;7.772;2022-12-13T09:54:38;-1.70;99.90
19665;DHT22;9980;51.020;7.772;2022-12-13T09:57:19;-1.70;99.90
19665;DHT22;9980;51.020;7.772;2022-12-13T10:00:10;-1.70;99.90
19665;DHT22;9980;51.020;7.772;2022-12-13T10:02:45;-1.70;99.90
19665;DHT22;9980;51.020;7.772;2022-12-13T10:05:35;-1.70;99.90
19665;DHT22;9980;51.020;7.772;2022-12-13T10:08:14;-1.60;99.90
19665;DHT22;9980;51.020;7.772;2022-12-13T10:10:45;-1.60;99.90
19665;DHT22;9980;51.020;7.772;2022-12-13T10:13:38;-1.60;99.90
19665;DHT22;9980;51.020;7.772;2022-12-13T10:16:26;-1.50;99.90
19665;DHT22;9980;51.020;7.772;2022-12-13T10:21:56;-1.50;99.90
19665;DHT22;9980;51.020;7.772;2022-12-13T10:24:30;-1.40;99.90
19665;DHT22;9980;51.020;7.772;2022-12-13T10:27:15;-1.40;99.90
19665;DHT22;9980;51.020;7.772;2022-12-13T10:30:24;-1.30;99.90
19665;DHT22;9980;51.020;7.772;2022-12-13T10:32:59;-1.20;99.90
19665;DHT22;9980;51.020;7.772;2022-12-13T10:35:39;-1.20;99.90
19665;DHT22;9980;51.020;7.772;2022-12-13T10:40:40;-1.00;99.90
19665;DHT22;9980;51.020;7.772;2022-12-13T10:43:18;-1.00;99.90
19665;DHT22;9980;51.020;7.772;2022-12-13T10:48:39;-0.80;99.90
19665;DHT22;9980;51.020;7.772;2022-12-13T10:51:15;-0.80;99.90
19665;DHT22;9980;51.020;7.772;2022-12-13T10:53:54;-0.70;99.90
19665;DHT22;9980;51.020;7.772;2022-12-13T10:56:35;-0.60;99.90
19665;DHT22;9980;51.020;7.772;2022-12-13T10:59:21;-0.60;99.90
19665;DHT22;9980;51.020;7.772;2022-12-13T11:01:51;-0.50;99.90
19665;DHT22;9980;51.020;7.772;2022-12-13T11:04:25;-0.40;99.90
19665;DHT22;9980;51.020;7.772;2022-12-13T11:06:56;-0.30;99.90
19665;DHT22;9980;51.020;7.772;2022-12-13T11:11:54;-0.20;99.90
19665;DHT22;9980;51.020;7.772;2022-12-13T11:14:33;-0.10;99.90
19665;DHT22;9980;51.020;7.772;2022-12-13T11:17:14;0.00;99.90
19665;DHT22;9980;51.020;7.772;2022-12-13T11:20:18;0.10;99.90
19665;DHT22;9980;51.020;7.772;2022-12-13T11:22:48;0.20;99.90
19665;DHT22;9980;51.020;7.772;2022-12-13T11:25:38;0.30;99.90
19665;DHT22;9980;51.020;7.772;2022-12-13T11:28:40;0.30;99.90
19665;DHT22;9980;51.020;7.772;2022-12-13T11:31:36;0.40;99.90
19665;DHT22;9980;51.020;7.772;2022-12-13T11:37:51;0.60;99.90
19665;DHT22;9980;51.020;7.772;2022-12-13T11:40:31;0.70;99.90
19665;DHT22;9980;51.020;7.772;2022-12-13T11:43:28;0.80;99.90
19665;DHT22;9980;51.020;7.772;2022-12-13T11:49:16;1.00;99.90
19665;DHT22;9980;51.020;7.772;2022-12-13T11:52:01;1.10;99.90
19665;DHT22;9980;51.020;7.772;2022-12-13T11:54:42;1.20;99.90
19665;DHT22;9980;51.020;7.772;2022-12-13T11:57:36;1.20;99.90
19665;DHT22;9980;51.020;7.772;2022-12-13T12:03:14;1.40;99.90
19665;DHT22;9980;51.020;7.772;2022-12-13T12:05:50;1.50;99.90
19665;DHT22;9980;51.020;7.772;2022-12-13T12:08:39;1.60;99.90
19665;DHT22;9980;51.020;7.772;2022-12-13T12:11:47;1.70;99.90
19665;DHT22;9980;51.020;7.772;2022-12-13T12:17:12;1.80;99.90
19665;DHT22;9980;51.020;7.772;2022-12-13T12:19:53;1.90;99.90
19665;DHT22;9980;51.020;7.772;2022-12-13T12:26:09;2.00;99.90
19665;DHT22;9980;51.020;7.772;2022-12-13T12:31:59;2.20;99.90
19665;DHT22;9980;51.020;7.772;2022-12-13T12:40:54;2.40;99.90
19665;DHT22;9980;51.020;7.772;2022-12-13T12:50:15;2.60;99.70
19665;DHT22;9980;51.020;7.772;2022-12-13T12:59:26;2.70;99.30
19665;DHT22;9980;51.020;7.772;2022-12-13T13:02:17;2.70;99.40
19665;DHT22;9980;51.020;7.772;2022-12-13T13:04:55;2.80;99.50
19665;DHT22;9980;51.020;7.772;2022-12-13T13:07:35;2.80;99.50
19665;DHT22;9980;51.020;7.772;2022-12-13T13:10:07;2.90;99.30
19665;DHT22;9980;51.020;7.772;2022-12-13T13:12:53;2.90;99.20
19665;DHT22;9980;51.020;7.772;2022-12-13T13:18:06;3.00;99.00
19665;DHT22;9980;51.020;7.772;2022-12-13T13:26:28;3.10;98.90
19665;DHT22;9980;51.020;7.772;2022-12-13T13:32:04;3.10;98.50
19665;DHT22;9980;51.020;7.772;2022-12-13T13:34:37;3.10;98.50
19665;DHT22;9980;51.020;7.772;2022-12-13T13:37:44;3.10;98.30
19665;DHT22;9980;51.020;7.772;2022-12-13T13:54:54;3.10;98.00
19665;DHT22;9980;51.020;7.772;2022-12-13T14:07:26;3.00;97.90
19665;DHT22;9980;51.020;7.772;2022-12-13T14:13:38;3.00;98.00
19665;DHT22;9980;51.020;7.772;2022-12-13T14:23:01;2.90;98.10
19665;DHT22;9980;51.020;7.772;2022-12-13T14:28:57;2.90;98.10
19665;DHT22;9980;51.020;7.772;2022-12-13T14:31:41;2.80;98.10
19665;DHT22;9980;51.020;7.772;2022-12-13T14:36:43;2.80;98.20
19665;DHT22;9980;51.020;7.772;2022-12-13T14:39:19;2.80;98.20
19665;DHT22;9980;51.020;7.772;2022-12-13T14:41:53;2.70;98.20
19665;DHT22;9980;51.020;7.772;2022-12-13T14:44:33;2.70;98.20
19665;DHT22;9980;51.020;7.772;2022-12-13T14:47:06;2.70;98.30
19665;DHT22;9980;51.020;7.772;2022-12-13T14:49:39;2.70;98.30
19665;DHT22;9980;51.020;7.772;2022-12-13T14:52:24;2.60;98.30
19665;DHT22;9980;51.020;7.772;2022-12-13T14:54:59;2.60;98.70
19665;DHT22;9980;51.020;7.772;2022-12-13T14:57:31;2.60;98.20
19665;DHT22;9980;51.020;7.772;2022-12-13T15:00:38;2.50;98.00
19665;DHT22;9980;51.020;7.772;2022-12-13T15:03:21;2.50;97.90
19665;DHT22;9980;51.020;7.772;2022-12-13T15:06:00;2.40;98.10
19665;DHT22;9980;51.020;7.772;2022-12-13T15:08:30;2.40;98.00
19665;DHT22;9980;51.020;7.772;2022-12-13T15:10:59;2.40;98.00
19665;DHT22;9980;51.020;7.772;2022-12-13T15:13:47;2.30;98.10
19665;DHT22;9980;51.020;7.772;2022-12-13T15:16:24;2.20;98.10
19665;DHT22;9980;51.020;7.772;2022-12-13T15:19:05;2.20;98.10
19665;DHT22;9980;51.020;7.772;2022-12-13T15:22:01;2.10;98.10
19665;DHT22;9980;51.020;7.772;2022-12-13T15:24:35;2.00;98.10
19665;DHT22;9980;51.020;7.772;2022-12-13T15:27:16;2.00;98.10
19665;DHT22;9980;51.020;7.772;2022-12-13T15:29:44;1.90;98.10
19665;DHT22;9980;51.020;7.772;2022-12-13T15:32:14;1.90;98.10
19665;DHT22;9980;51.020;7.772;2022-12-13T15:34:49;1.80;98.00
19665;DHT22;9980;51.020;7.772;2022-12-13T15:37:20;1.70;98.10
19665;DHT22;9980;51.020;7.772;2022-12-13T15:39:59;1.70;98.10
19665;DHT22;9980;51.020;7.772;2022-12-13T15:42:36;1.60;98.10
19665;DHT22;9980;51.020;7.772;2022-12-13T15:45:23;1.50;98.10
19665;DHT22;9980;51.020;7.772;2022-12-13T15:47:54;1.50;98.10
19665;DHT22;9980;51.020;7.772;2022-12-13T15:50:38;1.40;98.10
19665;DHT22;9980;51.020;7.772;2022-12-13T15:53:24;1.30;98.10
19665;DHT22;9980;51.020;7.772;2022-12-13T15:55:53;1.30;98.10
19665;DHT22;9980;51.020;7.772;2022-12-13T15:58:32;1.20;98.10
19665;DHT22;9980;51.020;7.772;2022-12-13T16:01:00;1.10;98.10
19665;DHT22;9980;51.020;7.772;2022-12-13T16:03:43;1.10;98.20
19665;DHT22;9980;51.020;7.772;2022-12-13T16:06:19;1.00;98.20
19665;DHT22;9980;51.020;7.772;2022-12-13T16:08:50;1.00;98.20
19665;DHT22;9980;51.020;7.772;2022-12-13T16:11:33;0.90;98.30
19665;DHT22;9980;51.020;7.772;2022-12-13T16:19:25;0.80;98.40
19665;DHT22;9980;51.020;7.772;2022-12-13T16:21:52;0.70;98.40
19665;DHT22;9980;51.020;7.772;2022-12-13T16:24:18;0.70;98.50
19665;DHT22;9980;51.020;7.772;2022-12-13T16:26:47;0.60;98.50
19665;DHT22;9980;51.020;7.772;2022-12-13T16:29:16;0.60;98.50
19665;DHT22;9980;51.020;7.772;2022-12-13T16:31:46;0.60;98.60
19665;DHT22;9980;51.020;7.772;2022-12-13T16:34:13;0.50;98.60
19665;DHT22;9980;51.020;7.772;2022-12-13T16:36:43;0.50;98.70
19665;DHT22;9980;51.020;7.772;2022-12-13T16:39:13;0.40;98.70
19665;DHT22;9980;51.020;7.772;2022-12-13T16:41:42;0.40;98.70
19665;DHT22;9980;51.020;7.772;2022-12-13T16:44:24;0.40;98.70
19665;DHT22;9980;51.020;7.772;2022-12-13T16:47:06;0.30;98.70
19665;DHT22;9980;51.020;7.772;2022-12-13T16:49:46;0.30;98.70
19665;DHT22;9980;51.020;7.772;2022-12-13T16:52:12;0.30;98.80
19665;DHT22;9980;51.020;7.772;2022-12-13T16:54:38;0.20;98.80
19665;DHT22;9980;51.020;7.772;2022-12-13T16:57:04;0.20;98.80
19665;DHT22;9980;51.020;7.772;2022-12-13T16:59:30;0.20;98.90
19665;DHT22;9980;51.020;7.772;2022-12-13T17:01:57;0.10;98.90
19665;DHT22;9980;51.020;7.772;2022-12-13T17:04:24;0.10;99.00
19665;DHT22;9980;51.020;7.772;2022-12-13T17:06:52;0.10;99.00
19665;DHT22;9980;51.020;7.772;2022-12-13T17:09:21;0.10;99.00
19665;DHT22;9980;51.020;7.772;2022-12-13T17:11:48;0.00;98.90
19665;DHT22;9980;51.020;7.772;2022-12-13T17:14:14;0.00;99.00
19665;DHT22;9980;51.020;7.772;2022-12-13T17:16:40;0.00;99.10
19665;DHT22;9980;51.020;7.772;2022-12-13T17:19:09;0.00;99.20
19665;DHT22;9980;51.020;7.772;2022-12-13T17:21:36;0.00;99.20
19665;DHT22;9980;51.020;7.772;2022-12-13T17:24:02;0.00;99.20
19665;DHT22;9980;51.020;7.772;2022-12-13T17:26:31;-0.10;99.20
19665;DHT22;9980;51.020;7.772;2022-12-13T17:28:57;-0.10;99.30
19665;DHT22;9980;51.020;7.772;2022-12-13T17:31:24;-0.10;99.30
19665;DHT22;9980;51.020;7.772;2022-12-13T17:33:51;-0.10;99.40
19665;DHT22;9980;51.020;7.772;2022-12-13T17:36:18;-0.10;99.30
19665;DHT22;9980;51.020;7.772;2022-12-13T17:38:45;-0.10;99.30
19665;DHT22;9980;51.020;7.772;2022-12-13T17:41:15;-0.20;99.20
19665;DHT22;9980;51.020;7.772;2022-12-13T17:43:43;-0.20;99.30
19665;DHT22;9980;51.020;7.772;2022-12-13T17:46:12;-0.20;99.30
19665;DHT22;9980;51.020;7.772;2022-12-13T17:48:41;-0.20;99.30
19665;DHT22;9980;51.020;7.772;2022-12-13T17:51:09;-0.20;99.30
19665;DHT22;9980;51.020;7.772;2022-12-13T17:53:38;-0.20;99.70
19665;DHT22;9980;51.020;7.772;2022-12-13T17:56:07;-0.20;99.30
19665;DHT22;9980;51.020;7.772;2022-12-13T17:58:37;-0.20;99.30
19665;DHT22;9980;51.020;7.772;2022-12-13T18:01:19;-0.30;99.30
19665;DHT22;9980;51.020;7.772;2022-12-13T18:03:52;-0.30;99.30
19665;DHT22;9980;51.020;7.772;2022-12-13T18:06:21;-0.30;99.30
19665;DHT22;9980;51.020;7.772;2022-12-13T18:08:48;-0.30;99.60
19665;DHT22;9980;51.020;7.772;2022-12-13T18:11:16;-0.30;99.30
19665;DHT22;9980;51.020;7.772;2022-12-13T18:14:00;-0.40;99.20
19665;DHT22;9980;51.020;7.772;2022-12-13T18:16:29;-0.40;99.20
19665;DHT22;9980;51.020;7.772;2022-12-13T18:19:10;-0.40;99.20
19665;DHT22;9980;51.020;7.772;2022-12-13T18:21:39;-0.40;99.20
19665;DHT22;9980;51.020;7.772;2022-12-13T18:24:06;-0.40;99.20
19665;DHT22;9980;51.020;7.772;2022-12-13T18:26:33;-0.50;99.10
19665;DHT22;9980;51.020;7.772;2022-12-13T18:29:00;-0.50;99.40
19665;DHT22;9980;51.020;7.772;2022-12-13T18:31:26;-0.50;99.10
19665;DHT22;9980;51.020;7.772;2022-12-13T18:33:53;-0.50;99.10
19665;DHT22;9980;51.020;7.772;2022-12-13T18:36:22;-0.50;99.10
19665;DHT22;9980;51.020;7.772;2022-12-13T18:38:50;-0.60;99.10
19665;DHT22;9980;51.020;7.772;2022-12-13T18:41:20;-0.60;99.10